PWSweather.com
Personal Weather Stations
Station Observations
KRMIDAS
Braemar, Lake Zurich, IL 60047

BraemarLake Zurich, IL 60047

Lat: 42.178, Lon: -88.102

Elevation: 837

Station Type: Davis Vantage Pro 2

http://tomkeramidas.com/cumulus/index.htm

Latest ConditionsUpdated 8:45:01 PM CST Friday, Feb 5, 2016
Currently Today's Max Today's Min Today's Average
Temperature 28.0°F-2.2°C 33.0°F0.6°C 24.0°F-4.4°C 27.9°F-2.3°C
Dew Point 22.9°F-5.1°C 25.8°F-3.4°C 21.0°F-6.1°C 22.8°F-5.1°C
Winds 1.0 mph SW1.6 kmh SW 6.0 mph NW9.7 kmh NW - 1.5 mph 2.4 kmh
Wind Gusts 5.0 mph8.0 kmh 15.0 mph24.1 kmh - -
Humidity 81% 94% 62% 82%
Pressure 30.38 in1028.8 mb 30.42 in1030.1 mb 30.29 in1025.7 mb -
Hour Temp Dew Point Humidity Winds Wind Gusts Pressure Precip Precip Rate Daily Precip Total
08:45 PM 28.0°F-2.2°C 22.9°F-5.1°C 81% 1.0 mph SW1.6 kmh SW 5.0 mph8.0 kmh 30.38 in1028.8 mb 0.00 in0.0 mm 0.00 in0.0 mm 0.00 in0.0 mm
08:30 PM 28.1°F-2.2°C 22.7°F-5.2°C 80% 1.0 mph SW1.6 kmh SW 6.0 mph9.7 kmh 30.38 in1028.8 mb 0.00 in0.0 mm 0.00 in0.0 mm 0.00 in0.0 mm
08:15 PM 28.3°F-2.1°C 22.6°F-5.2°C 79% Calm Calm 2.0 mph3.2 kmh 30.38 in1028.8 mb 0.00 in0.0 mm 0.00 in0.0 mm 0.00 in0.0 mm
08:00 PM 28.5°F-1.9°C 22.5°F-5.3°C 78% Calm Calm 4.0 mph6.4 kmh 30.38 in1028.8 mb 0.00 in0.0 mm 0.00 in0.0 mm 0.00 in0.0 mm
07:45 PM 28.7°F-1.8°C 22.7°F-5.2°C 78% Calm Calm -- 30.38 in1028.8 mb 0.00 in0.0 mm 0.00 in0.0 mm 0.00 in0.0 mm
07:30 PM 28.8°F-1.8°C 22.8°F-5.1°C 78% Calm Calm 5.0 mph8.0 kmh 30.38 in1028.8 mb 0.00 in0.0 mm 0.00 in0.0 mm 0.00 in0.0 mm
07:15 PM 28.8°F-1.8°C 22.5°F-5.3°C 77% Calm Calm 1.0 mph1.6 kmh 30.38 in1028.8 mb 0.00 in0.0 mm 0.00 in0.0 mm 0.00 in0.0 mm
07:00 PM 28.8°F-1.8°C 22.2°F-5.4°C 76% Calm Calm -- 30.38 in1028.8 mb 0.00 in0.0 mm 0.00 in0.0 mm 0.00 in0.0 mm
06:45 PM 28.8°F-1.8°C 22.2°F-5.4°C 76% Calm Calm -- 30.38 in1028.8 mb 0.00 in0.0 mm 0.00 in0.0 mm 0.00 in0.0 mm
06:30 PM 28.9°F-1.7°C 22.0°F-5.6°C 75% Calm Calm -- 30.38 in1028.8 mb 0.00 in0.0 mm 0.00 in0.0 mm 0.00 in0.0 mm
06:15 PM 29.1°F-1.6°C 21.8°F-5.7°C 74% Calm Calm -- 30.39 in1029.1 mb 0.00 in0.0 mm 0.00 in0.0 mm 0.00 in0.0 mm
06:00 PM 29.3°F-1.5°C 21.7°F-5.7°C 73% Calm Calm -- 30.39 in1029.1 mb 0.00 in0.0 mm 0.00 in0.0 mm 0.00 in0.0 mm
05:45 PM 29.4°F-1.4°C 21.5°F-5.8°C 72% Calm Calm -- 30.39 in1029.1 mb 0.00 in0.0 mm 0.00 in0.0 mm 0.00 in0.0 mm
05:30 PM 29.6°F-1.3°C 21.7°F-5.7°C 72% Calm Calm -- 30.40 in1029.5 mb 0.00 in0.0 mm 0.00 in0.0 mm 0.00 in0.0 mm
05:15 PM 29.8°F-1.2°C 21.5°F-5.8°C 71% Calm Calm -- 30.40 in1029.5 mb 0.00 in0.0 mm 0.00 in0.0 mm 0.00 in0.0 mm
05:00 PM 29.9°F-1.2°C 21.6°F-5.8°C 71% 1.0 mph WSW1.6 kmh WSW 5.0 mph8.0 kmh 30.41 in1029.8 mb 0.00 in0.0 mm 0.00 in0.0 mm 0.00 in0.0 mm
04:45 PM 30.1°F-1.1°C 21.5°F-5.8°C 70% 3.0 mph WSW4.8 kmh WSW 10.0 mph16.1 kmh 30.40 in1029.5 mb 0.00 in0.0 mm 0.00 in0.0 mm 0.00 in0.0 mm
04:30 PM 30.5°F-0.8°C 21.5°F-5.8°C 69% 2.0 mph WSW3.2 kmh WSW 7.0 mph11.3 kmh 30.40 in1029.5 mb 0.00 in0.0 mm 0.00 in0.0 mm 0.00 in0.0 mm
04:15 PM 30.7°F-0.7°C 22.1°F-5.5°C 70% 3.0 mph W4.8 kmh W 7.0 mph11.3 kmh 30.40 in1029.5 mb 0.00 in0.0 mm 0.00 in0.0 mm 0.00 in0.0 mm
04:00 PM 30.9°F-0.6°C 21.2°F-6.0°C 67% 5.0 mph WSW8.0 kmh WSW 11.0 mph17.7 kmh 30.39 in1029.1 mb 0.00 in0.0 mm 0.00 in0.0 mm 0.00 in0.0 mm
03:45 PM 31.3°F-0.4°C 21.3°F-5.9°C 66% 4.0 mph WSW6.4 kmh WSW 11.0 mph17.7 kmh 30.39 in1029.1 mb 0.00 in0.0 mm 0.00 in0.0 mm 0.00 in0.0 mm
03:30 PM 31.7°F-0.2°C 22.3°F-5.4°C 68% 1.0 mph W1.6 kmh W 8.0 mph12.9 kmh 30.39 in1029.1 mb 0.00 in0.0 mm 0.00 in0.0 mm 0.00 in0.0 mm
03:15 PM 32.2°F0.1°C 22.5°F-5.3°C 67% 3.0 mph SW4.8 kmh SW 9.0 mph14.5 kmh 30.38 in1028.8 mb 0.00 in0.0 mm 0.00 in0.0 mm 0.00 in0.0 mm
03:00 PM 32.5°F0.3°C 22.4°F-5.3°C 66% 5.0 mph WSW8.0 kmh WSW 10.0 mph16.1 kmh 30.38 in1028.8 mb 0.00 in0.0 mm 0.00 in0.0 mm 0.00 in0.0 mm
02:45 PM 32.6°F0.3°C 21.0°F-6.1°C 62% 1.0 mph W1.6 kmh W 5.0 mph8.0 kmh 30.37 in1028.4 mb 0.00 in0.0 mm 0.00 in0.0 mm 0.00 in0.0 mm
02:30 PM 32.8°F0.4°C 21.2°F-6.0°C 62% 3.0 mph NW4.8 kmh NW 9.0 mph14.5 kmh 30.37 in1028.4 mb 0.00 in0.0 mm 0.00 in0.0 mm 0.00 in0.0 mm
02:15 PM 32.9°F0.5°C 21.3°F-5.9°C 62% 3.0 mph NW4.8 kmh NW 7.0 mph11.3 kmh 30.37 in1028.4 mb 0.00 in0.0 mm 0.00 in0.0 mm 0.00 in0.0 mm
02:00 PM 33.0°F0.6°C 21.7°F-5.7°C 63% 1.0 mph NW1.6 kmh NW 7.0 mph11.3 kmh 30.37 in1028.4 mb 0.00 in0.0 mm 0.00 in0.0 mm 0.00 in0.0 mm
01:45 PM 32.6°F0.3°C 22.5°F-5.3°C 66% 2.0 mph W3.2 kmh W 8.0 mph12.9 kmh 30.37 in1028.4 mb 0.00 in0.0 mm 0.00 in0.0 mm 0.00 in0.0 mm
01:30 PM 32.3°F0.2°C 22.6°F-5.2°C 67% 3.0 mph WNW4.8 kmh WNW 7.0 mph11.3 kmh 30.38 in1028.8 mb 0.00 in0.0 mm 0.00 in0.0 mm 0.00 in0.0 mm
01:15 PM 32.2°F0.1°C 22.1°F-5.5°C 66% 3.0 mph NW4.8 kmh NW 12.0 mph19.3 kmh 30.38 in1028.8 mb 0.00 in0.0 mm 0.00 in0.0 mm 0.00 in0.0 mm
01:00 PM 31.6°F-0.2°C 23.6°F-4.7°C 72% 3.0 mph W4.8 kmh W 7.0 mph11.3 kmh 30.38 in1028.8 mb 0.00 in0.0 mm 0.00 in0.0 mm 0.00 in0.0 mm
12:45 PM 31.2°F-0.4°C 23.2°F-4.9°C 72% 4.0 mph WNW6.4 kmh WNW 10.0 mph16.1 kmh 30.39 in1029.1 mb 0.00 in0.0 mm 0.00 in0.0 mm 0.00 in0.0 mm
12:30 PM 31.1°F-0.5°C 23.1°F-4.9°C 72% 5.0 mph W8.0 kmh W 12.0 mph19.3 kmh 30.39 in1029.1 mb 0.00 in0.0 mm 0.00 in0.0 mm 0.00 in0.0 mm
12:15 PM 30.8°F-0.7°C 24.1°F-4.4°C 76% 2.0 mph W3.2 kmh W 9.0 mph14.5 kmh 30.39 in1029.1 mb 0.00 in0.0 mm 0.00 in0.0 mm 0.00 in0.0 mm
12:00 PM 29.6°F-1.3°C 23.6°F-4.7°C 78% 4.0 mph W6.4 kmh W 12.0 mph19.3 kmh 30.39 in1029.1 mb 0.00 in0.0 mm 0.00 in0.0 mm 0.00 in0.0 mm
11:45 AM 28.5°F-1.9°C 23.1°F-4.9°C 80% 4.0 mph NW6.4 kmh NW 9.0 mph14.5 kmh 30.40 in1029.5 mb 0.00 in0.0 mm 0.00 in0.0 mm 0.00 in0.0 mm
11:30 AM 28.3°F-2.1°C 22.9°F-5.1°C 80% 2.0 mph NW3.2 kmh NW 7.0 mph11.3 kmh 30.41 in1029.8 mb 0.00 in0.0 mm 0.00 in0.0 mm 0.00 in0.0 mm
11:15 AM 28.0°F-2.2°C 22.6°F-5.2°C 80% 4.0 mph W6.4 kmh W 12.0 mph19.3 kmh 30.41 in1029.8 mb 0.00 in0.0 mm 0.00 in0.0 mm 0.00 in0.0 mm
11:00 AM 27.5°F-2.5°C 22.7°F-5.2°C 82% 2.0 mph WNW3.2 kmh WNW 10.0 mph16.1 kmh 30.41 in1029.8 mb 0.00 in0.0 mm 0.00 in0.0 mm 0.00 in0.0 mm
10:45 AM 27.1°F-2.7°C 22.6°F-5.2°C 83% 3.0 mph NW4.8 kmh NW 7.0 mph11.3 kmh 30.42 in1030.1 mb 0.00 in0.0 mm 0.00 in0.0 mm 0.00 in0.0 mm
10:30 AM 26.7°F-2.9°C 22.5°F-5.3°C 84% 1.0 mph NW1.6 kmh NW 7.0 mph11.3 kmh 30.42 in1030.1 mb 0.00 in0.0 mm 0.00 in0.0 mm 0.00 in0.0 mm
10:15 AM 26.7°F-2.9°C 22.5°F-5.3°C 84% 2.0 mph NW3.2 kmh NW 9.0 mph14.5 kmh 30.42 in1030.1 mb 0.00 in0.0 mm 0.00 in0.0 mm 0.00 in0.0 mm
10:00 AM 26.7°F-2.9°C 22.8°F-5.1°C 85% 1.0 mph WNW1.6 kmh WNW 7.0 mph11.3 kmh 30.41 in1029.8 mb 0.00 in0.0 mm 0.00 in0.0 mm 0.00 in0.0 mm
09:45 AM 26.5°F-3.1°C 22.6°F-5.2°C 85% 4.0 mph NW6.4 kmh NW 10.0 mph16.1 kmh 30.40 in1029.5 mb 0.00 in0.0 mm 0.00 in0.0 mm 0.00 in0.0 mm
09:30 AM 26.4°F-3.1°C 22.8°F-5.1°C 86% 4.0 mph NW6.4 kmh NW 12.0 mph19.3 kmh 30.40 in1029.5 mb 0.00 in0.0 mm 0.00 in0.0 mm 0.00 in0.0 mm
09:15 AM 26.4°F-3.1°C 22.8°F-5.1°C 86% 3.0 mph WNW4.8 kmh WNW 10.0 mph16.1 kmh 30.40 in1029.5 mb 0.00 in0.0 mm 0.00 in0.0 mm 0.00 in0.0 mm
09:00 AM 26.2°F-3.2°C 22.6°F-5.2°C 86% 2.0 mph NW3.2 kmh NW 12.0 mph19.3 kmh 30.40 in1029.5 mb 0.00 in0.0 mm 0.00 in0.0 mm 0.00 in0.0 mm
08:45 AM 26.2°F-3.2°C 22.6°F-5.2°C 86% 4.0 mph NW6.4 kmh NW 13.0 mph20.9 kmh 30.40 in1029.5 mb 0.00 in0.0 mm 0.00 in0.0 mm 0.00 in0.0 mm
08:30 AM 26.2°F-3.2°C 22.9°F-5.1°C 87% 3.0 mph WNW4.8 kmh WNW 10.0 mph16.1 kmh 30.40 in1029.5 mb 0.00 in0.0 mm 0.00 in0.0 mm 0.00 in0.0 mm
08:15 AM 26.6°F-3.0°C 23.3°F-4.8°C 87% 4.0 mph WNW6.4 kmh WNW 11.0 mph17.7 kmh 30.39 in1029.1 mb 0.00 in0.0 mm 0.00 in0.0 mm 0.00 in0.0 mm
08:00 AM 27.0°F-2.8°C 23.9°F-4.5°C 88% 6.0 mph NW9.7 kmh NW 15.0 mph24.1 kmh 30.39 in1029.1 mb 0.00 in0.0 mm 0.00 in0.0 mm 0.00 in0.0 mm
07:45 AM 27.2°F-2.7°C 24.7°F-4.1°C 90% 4.0 mph WNW6.4 kmh WNW 12.0 mph19.3 kmh 30.38 in1028.8 mb 0.00 in0.0 mm 0.00 in0.0 mm 0.00 in0.0 mm
07:30 AM 27.3°F-2.6°C 25.0°F-3.9°C 91% 6.0 mph NW9.7 kmh NW 11.0 mph17.7 kmh 30.37 in1028.4 mb 0.00 in0.0 mm 0.00 in0.0 mm 0.00 in0.0 mm
07:15 AM 27.4°F-2.6°C 25.6°F-3.6°C 93% 3.0 mph NW4.8 kmh NW 9.0 mph14.5 kmh 30.37 in1028.4 mb 0.00 in0.0 mm 0.00 in0.0 mm 0.00 in0.0 mm
07:00 AM 27.3°F-2.6°C 25.8°F-3.4°C 94% 1.0 mph WNW1.6 kmh WNW 6.0 mph9.7 kmh 30.36 in1028.1 mb 0.00 in0.0 mm 0.00 in0.0 mm 0.00 in0.0 mm
06:45 AM 27.1°F-2.7°C 25.3°F-3.7°C 93% 1.0 mph WNW1.6 kmh WNW 5.0 mph8.0 kmh 30.36 in1028.1 mb 0.00 in0.0 mm 0.00 in0.0 mm 0.00 in0.0 mm
06:30 AM 26.8°F-2.9°C 25.3°F-3.7°C 94% Calm Calm 2.0 mph3.2 kmh 30.36 in1028.1 mb 0.00 in0.0 mm 0.00 in0.0 mm 0.00 in0.0 mm
06:15 AM 26.4°F-3.1°C 24.9°F-3.9°C 94% Calm Calm -- 30.34 in1027.4 mb 0.00 in0.0 mm 0.00 in0.0 mm 0.00 in0.0 mm
06:00 AM 26.0°F-3.3°C 24.5°F-4.2°C 94% Calm Calm -- 30.34 in1027.4 mb 0.00 in0.0 mm 0.00 in0.0 mm 0.00 in0.0 mm
05:45 AM 25.5°F-3.6°C 24.0°F-4.4°C 94% Calm Calm -- 30.32 in1026.8 mb 0.00 in0.0 mm 0.00 in0.0 mm 0.00 in0.0 mm
05:30 AM 25.1°F-3.8°C 23.4°F-4.8°C 93% Calm Calm -- 30.32 in1026.8 mb 0.00 in0.0 mm 0.00 in0.0 mm 0.00 in0.0 mm
05:15 AM 24.7°F-4.1°C 22.7°F-5.2°C 92% Calm Calm -- 30.31 in1026.4 mb 0.00 in0.0 mm 0.00 in0.0 mm 0.00 in0.0 mm
05:00 AM 24.8°F-4.0°C 22.5°F-5.3°C 91% Calm Calm -- 30.31 in1026.4 mb 0.00 in0.0 mm 0.00 in0.0 mm 0.00 in0.0 mm
04:45 AM 25.3°F-3.7°C 23.0°F-5.0°C 91% Calm Calm -- 30.30 in1026.1 mb 0.00 in0.0 mm 0.00 in0.0 mm 0.00 in0.0 mm
04:30 AM 26.0°F-3.3°C 23.7°F-4.6°C 91% Calm Calm -- 30.30 in1026.1 mb 0.00 in0.0 mm 0.00 in0.0 mm 0.00 in0.0 mm
04:15 AM 26.4°F-3.1°C 24.4°F-4.2°C 92% Calm Calm -- 30.30 in1026.1 mb 0.00 in0.0 mm 0.00 in0.0 mm 0.00 in0.0 mm
04:00 AM 26.4°F-3.1°C 24.7°F-4.1°C 93% Calm Calm -- 30.29 in1025.7 mb 0.00 in0.0 mm 0.00 in0.0 mm 0.00 in0.0 mm
03:45 AM 26.1°F-3.3°C 24.4°F-4.2°C 93% Calm Calm -- 30.30 in1026.1 mb 0.00 in0.0 mm 0.00 in0.0 mm 0.00 in0.0 mm
03:30 AM 25.6°F-3.6°C 23.9°F-4.5°C 93% Calm Calm -- 30.30 in1026.1 mb 0.00 in0.0 mm 0.00 in0.0 mm 0.00 in0.0 mm
03:15 AM 25.1°F-3.8°C 23.4°F-4.8°C 93% Calm Calm -- 30.29 in1025.7 mb 0.00 in0.0 mm 0.00 in0.0 mm 0.00 in0.0 mm
03:00 AM 24.7°F-4.1°C 23.0°F-5.0°C 93% Calm Calm -- 30.30 in1026.1 mb 0.00 in0.0 mm 0.00 in0.0 mm 0.00 in0.0 mm
02:45 AM 24.3°F-4.3°C 22.3°F-5.4°C 92% Calm Calm -- 30.29 in1025.7 mb 0.00 in0.0 mm 0.00 in0.0 mm 0.00 in0.0 mm
02:30 AM 24.0°F-4.4°C 22.0°F-5.6°C 92% Calm Calm -- 30.29 in1025.7 mb 0.00 in0.0 mm 0.00 in0.0 mm 0.00 in0.0 mm
02:15 AM 24.0°F-4.4°C 22.0°F-5.6°C 92% Calm Calm -- 30.29 in1025.7 mb 0.00 in0.0 mm 0.00 in0.0 mm 0.00 in0.0 mm
02:00 AM 24.0°F-4.4°C 21.8°F-5.7°C 91% Calm Calm -- 30.29 in1025.7 mb 0.00 in0.0 mm 0.00 in0.0 mm 0.00 in0.0 mm
01:45 AM 24.0°F-4.4°C 21.8°F-5.7°C 91% Calm Calm -- 30.29 in1025.7 mb 0.00 in0.0 mm 0.00 in0.0 mm 0.00 in0.0 mm
01:30 AM 24.0°F-4.4°C 21.5°F-5.8°C 90% Calm Calm -- 30.29 in1025.7 mb 0.00 in0.0 mm 0.00 in0.0 mm 0.00 in0.0 mm
01:15 AM 24.2°F-4.3°C 21.4°F-5.9°C 89% Calm Calm -- 30.29 in1025.7 mb 0.00 in0.0 mm 0.00 in0.0 mm 0.00 in0.0 mm
01:00 AM 24.6°F-4.1°C 21.6°F-5.8°C 88% Calm Calm -- 30.29 in1025.7 mb 0.00 in0.0 mm 0.00 in0.0 mm 0.00 in0.0 mm
12:45 AM 25.2°F-3.8°C 22.1°F-5.5°C 88% Calm Calm -- 30.29 in1025.7 mb 0.00 in0.0 mm 0.00 in0.0 mm 0.00 in0.0 mm
12:30 AM 25.9°F-3.4°C 22.8°F-5.1°C 88% Calm Calm -- 30.29 in1025.7 mb 0.00 in0.0 mm 0.00 in0.0 mm 0.00 in0.0 mm
12:15 AM 26.3°F-3.2°C 23.0°F-5.0°C 87% Calm Calm -- 30.29 in1025.7 mb 0.00 in0.0 mm 0.00 in0.0 mm 0.00 in0.0 mm
12:00 AM 26.5°F-3.1°C 22.9°F-5.1°C 86% Calm Calm -- 30.30 in1026.1 mb 0.00 in0.0 mm 0.00 in0.0 mm 0.00 in0.0 mm